createdAt,value
2023-01-31T00:00:18.566Z,89.83
2023-01-31T00:01:18.374Z,90.40
2023-01-31T00:02:15.029Z,89.83
2023-01-31T00:03:11.840Z,90.65
2023-01-31T00:04:11.922Z,90.58
2023-01-31T00:05:09.139Z,90.72
2023-01-31T00:06:26.760Z,90.45
2023-01-31T00:07:23.428Z,90.38
2023-01-31T00:08:20.027Z,90.50
2023-01-31T00:09:16.903Z,90.42
2023-01-31T00:10:13.763Z,90.47
2023-01-31T00:11:11.315Z,90.10
2023-01-31T00:12:07.977Z,90.31
2023-01-31T00:13:04.574Z,89.74
2023-01-31T00:14:04.859Z,90.13
2023-01-31T00:15:01.467Z,89.83
2023-01-31T00:15:58.615Z,90.40
2023-01-31T00:16:55.531Z,90.28
2023-01-31T00:17:52.231Z,90.36
2023-01-31T00:18:49.688Z,89.20
2023-01-31T00:19:46.479Z,88.29
2023-01-31T00:20:43.057Z,88.79
2023-01-31T00:21:43.717Z,88.33
2023-01-31T00:22:40.504Z,88.31
2023-01-31T00:23:38.425Z,87.51
2023-01-31T00:24:36.035Z,87.39
2023-01-31T00:25:32.630Z,87.73
2023-01-31T00:26:31.938Z,87.24
2023-01-31T00:27:28.587Z,86.25
2023-01-31T00:28:25.232Z,84.86
2023-01-31T00:29:21.926Z,84.13
2023-01-31T00:30:18.495Z,84.20
2023-01-31T00:31:17.045Z,84.11
2023-01-31T00:32:13.789Z,84.33
2023-01-31T00:33:10.387Z,84.17
2023-01-31T00:34:07.575Z,82.96
2023-01-31T00:35:04.463Z,82.79
2023-01-31T00:36:10.143Z,83.16
2023-01-31T00:37:06.781Z,83.27
2023-01-31T00:38:03.454Z,83.82
2023-01-31T00:39:02.493Z,84.18
2023-01-31T00:39:59.060Z,84.60
2023-01-31T00:40:55.744Z,84.98
2023-01-31T00:41:52.346Z,85.03
2023-01-31T00:42:48.929Z,85.56
2023-01-31T00:43:45.619Z,85.31
2023-01-31T00:44:42.193Z,85.65
2023-01-31T00:45:38.699Z,85.99
2023-01-31T00:46:36.467Z,86.18
2023-01-31T00:47:33.251Z,85.66
2023-01-31T00:48:30.746Z,85.80
2023-01-31T00:49:27.567Z,85.96
2023-01-31T00:50:24.211Z,85.59
2023-01-31T00:51:21.498Z,85.58
2023-01-31T00:52:18.127Z,86.05
2023-01-31T00:53:14.785Z,85.70
2023-01-31T00:54:11.426Z,85.89
2023-01-31T00:55:08.433Z,85.60
2023-01-31T00:56:08.488Z,84.61
2023-01-31T00:57:05.109Z,85.27
2023-01-31T00:58:01.762Z,84.99
2023-01-31T00:58:58.488Z,83.68
2023-01-31T00:59:55.080Z,83.65
2023-01-31T01:00:51.794Z,83.92
2023-01-31T01:01:48.486Z,81.88
2023-01-31T01:02:45.094Z,80.19
2023-01-31T01:03:43.435Z,80.07
2023-01-31T01:04:40.152Z,81.19
2023-01-31T01:05:37.309Z,81.21
2023-01-31T01:06:34.626Z,82.26
2023-01-31T01:07:31.867Z,81.83
2023-01-31T01:08:29.231Z,82.60
2023-01-31T01:09:25.838Z,84.38
2023-01-31T01:10:22.546Z,84.75
2023-01-31T01:11:30.044Z,84.37
2023-01-31T01:12:26.804Z,83.57
2023-01-31T01:13:23.463Z,84.71
2023-01-31T01:14:20.287Z,84.24
2023-01-31T01:15:17.794Z,83.45
2023-01-31T01:16:23.826Z,84.23
2023-01-31T01:17:20.459Z,84.10
2023-01-31T01:18:17.103Z,84.34
2023-01-31T01:19:17.856Z,84.21
2023-01-31T01:20:14.507Z,83.88
2023-01-31T01:21:14.605Z,83.81
2023-01-31T01:22:16.080Z,83.40
2023-01-31T01:23:12.685Z,84.37
2023-01-31T01:24:13.767Z,84.66
2023-01-31T01:25:10.968Z,85.35
2023-01-31T01:26:14.917Z,84.15
2023-01-31T01:27:12.611Z,83.92
2023-01-31T01:28:09.167Z,84.59
2023-01-31T01:29:05.877Z,84.89
2023-01-31T01:30:03.211Z,84.87
2023-01-31T01:30:59.824Z,83.91
2023-01-31T01:31:56.462Z,83.82
2023-01-31T01:32:56.371Z,84.61
2023-01-31T01:33:52.948Z,84.67
2023-01-31T01:34:49.837Z,85.30
2023-01-31T01:35:46.588Z,85.48
2023-01-31T01:36:44.231Z,85.16
2023-01-31T01:37:42.200Z,85.40
2023-01-31T01:38:42.695Z,85.69
2023-01-31T01:39:39.448Z,85.72
2023-01-31T01:40:37.847Z,85.67
2023-01-31T01:41:35.135Z,85.02
2023-01-31T01:42:35.495Z,84.80
2023-01-31T01:43:54.769Z,85.12
2023-01-31T01:44:59.264Z,85.63
2023-01-31T01:45:56.088Z,85.32
2023-01-31T01:46:52.853Z,85.52
2023-01-31T01:48:01.049Z,85.06
2023-01-31T01:49:05.747Z,85.40
2023-01-31T01:50:30.341Z,85.29
2023-01-31T01:51:29.964Z,85.35
2023-01-31T01:52:29.748Z,84.25
2023-01-31T01:53:28.833Z,85.03
2023-01-31T01:54:31.593Z,84.14
2023-01-31T01:55:34.696Z,84.31
2023-01-31T01:56:37.683Z,84.42
2023-01-31T01:57:39.575Z,84.24
2023-01-31T01:58:51.510Z,84.22
2023-01-31T01:59:55.907Z,84.33
2023-01-31T02:00:53.787Z,84.54
2023-01-31T02:01:51.081Z,84.81
2023-01-31T02:02:50.793Z,85.01
2023-01-31T02:03:49.346Z,86.10
2023-01-31T02:04:49.872Z,85.64
2023-01-31T02:05:50.000Z,86.14
2023-01-31T02:06:47.415Z,86.46
2023-01-31T02:07:44.208Z,86.11
2023-01-31T02:08:42.643Z,86.41
2023-01-31T02:10:05.010Z,86.94
2023-01-31T02:11:08.298Z,86.38
2023-01-31T02:12:05.237Z,86.70
2023-01-31T02:13:02.780Z,86.93
2023-01-31T02:14:03.521Z,86.45
2023-01-31T02:15:00.891Z,86.23
2023-01-31T02:15:58.509Z,86.01
2023-01-31T02:16:55.138Z,86.41
2023-01-31T02:17:53.755Z,86.39
2023-01-31T02:18:51.435Z,85.86
2023-01-31T02:19:54.026Z,85.52
2023-01-31T02:21:09.577Z,86.18
2023-01-31T02:22:27.653Z,85.86
2023-01-31T02:23:45.721Z,86.12
2023-01-31T02:25:16.490Z,86.62
2023-01-31T02:26:46.709Z,85.86
2023-01-31T02:27:52.342Z,85.62
2023-01-31T02:28:51.680Z,85.77
2023-01-31T02:29:48.271Z,85.58
2023-01-31T02:31:13.297Z,85.79
2023-01-31T02:32:52.450Z,84.35
2023-01-31T02:33:55.502Z,84.60
2023-01-31T02:35:02.340Z,85.02
2023-01-31T02:36:25.598Z,85.71
2023-01-31T02:37:40.378Z,85.33
2023-01-31T02:38:42.986Z,85.38
2023-01-31T02:39:53.027Z,85.76
2023-01-31T02:40:55.900Z,85.54
2023-01-31T02:42:00.881Z,85.53
2023-01-31T02:43:03.008Z,84.88
2023-01-31T02:44:24.836Z,85.71
2023-01-31T02:45:48.411Z,85.67
2023-01-31T02:46:47.600Z,85.07
2023-01-31T02:48:19.996Z,84.70
2023-01-31T02:49:37.199Z,83.76
2023-01-31T02:50:44.272Z,84.30
2023-01-31T02:52:06.280Z,84.74
2023-01-31T02:53:12.232Z,85.48
2023-01-31T02:54:12.589Z,85.51
2023-01-31T02:55:36.749Z,85.91
2023-01-31T02:56:36.976Z,85.58
2023-01-31T02:57:36.691Z,85.95
2023-01-31T02:58:37.827Z,85.52
2023-01-31T02:59:36.705Z,83.49
2023-01-31T03:00:36.579Z,82.82
2023-01-31T03:01:36.792Z,82.93
2023-01-31T03:02:33.532Z,82.82
2023-01-31T03:03:34.525Z,81.98
2023-01-31T03:04:32.978Z,83.24
2023-01-31T03:05:29.838Z,83.00
2023-01-31T03:06:27.213Z,82.78
2023-01-31T03:07:29.555Z,82.46
2023-01-31T03:08:26.176Z,83.22
2023-01-31T03:09:50.026Z,83.68
2023-01-31T03:10:49.378Z,84.20
2023-01-31T03:11:58.227Z,84.89
2023-01-31T03:13:02.432Z,85.79
2023-01-31T03:14:31.106Z,86.52
2023-01-31T03:16:08.246Z,86.54
2023-01-31T03:17:27.610Z,86.18
2023-01-31T03:18:32.013Z,86.37
2023-01-31T03:19:53.505Z,86.81
2023-01-31T03:21:05.742Z,85.80
2023-01-31T03:22:10.849Z,85.03
2023-01-31T03:23:12.624Z,84.41
2023-01-31T03:24:09.707Z,84.56
2023-01-31T03:25:10.041Z,84.62
2023-01-31T03:26:08.059Z,84.79
2023-01-31T03:27:05.299Z,84.24
2023-01-31T03:28:06.480Z,83.87
2023-01-31T03:29:06.728Z,84.09
2023-01-31T03:30:13.745Z,84.64
2023-01-31T03:31:19.972Z,84.21
2023-01-31T03:32:17.159Z,84.74
2023-01-31T03:33:25.668Z,84.93
2023-01-31T03:34:22.737Z,85.26
2023-01-31T03:35:24.136Z,85.80
2023-01-31T03:36:26.942Z,86.10
2023-01-31T03:37:47.325Z,85.36
2023-01-31T03:39:10.760Z,85.58
2023-01-31T03:40:30.600Z,86.43
2023-01-31T03:41:50.212Z,86.47
2023-01-31T03:43:15.158Z,85.48
2023-01-31T03:44:37.669Z,86.01
2023-01-31T03:45:50.747Z,85.67
2023-01-31T03:46:53.693Z,85.64
2023-01-31T03:47:51.933Z,85.83
2023-01-31T03:48:52.169Z,85.49
2023-01-31T03:49:51.764Z,85.33
2023-01-31T03:50:55.232Z,85.26
2023-01-31T03:51:56.464Z,85.69
2023-01-31T03:53:00.407Z,85.33
2023-01-31T03:54:03.893Z,85.81
2023-01-31T03:55:07.926Z,85.42
2023-01-31T03:56:16.857Z,85.23
2023-01-31T03:57:36.034Z,85.43
2023-01-31T03:58:38.494Z,85.14
2023-01-31T03:59:37.272Z,85.05
2023-01-31T04:00:38.695Z,84.44
2023-01-31T04:01:40.491Z,84.83
2023-01-31T04:02:37.907Z,84.34
2023-01-31T04:04:07.884Z,84.74
2023-01-31T04:05:16.925Z,85.00
2023-01-31T04:06:14.526Z,85.07
2023-01-31T04:07:12.490Z,85.18
2023-01-31T04:08:09.338Z,84.25
2023-01-31T04:09:06.397Z,84.54
2023-01-31T04:10:08.155Z,85.01
2023-01-31T04:11:06.499Z,84.56
2023-01-31T04:12:03.430Z,84.44
2023-01-31T04:13:01.567Z,84.28
2023-01-31T04:13:58.164Z,84.04
2023-01-31T04:14:54.799Z,84.19
2023-01-31T04:15:51.418Z,84.42
2023-01-31T04:16:48.068Z,84.89
2023-01-31T04:17:45.052Z,84.52
2023-01-31T04:18:41.643Z,84.83
2023-01-31T04:19:38.299Z,85.27
2023-01-31T04:20:35.029Z,83.83
2023-01-31T04:21:32.172Z,84.48
2023-01-31T04:22:28.883Z,85.23
2023-01-31T04:23:26.657Z,85.01
2023-01-31T04:24:23.323Z,85.27
2023-01-31T04:25:20.131Z,84.99
2023-01-31T04:26:17.032Z,85.09
2023-01-31T04:27:13.636Z,84.91
2023-01-31T04:28:11.170Z,85.30
2023-01-31T04:29:07.804Z,84.71
2023-01-31T04:30:05.308Z,85.25
2023-01-31T04:31:02.028Z,85.85
2023-01-31T04:31:58.826Z,85.29
2023-01-31T04:32:55.551Z,85.83
2023-01-31T04:33:52.145Z,85.48
2023-01-31T04:34:48.768Z,85.58
2023-01-31T04:35:46.537Z,85.79
2023-01-31T04:36:43.107Z,86.42
2023-01-31T04:37:39.674Z,86.45
2023-01-31T04:38:36.587Z,85.98
2023-01-31T04:39:33.347Z,86.70
2023-01-31T04:40:29.988Z,86.45
2023-01-31T04:41:27.073Z,86.46
2023-01-31T04:42:23.725Z,86.18
2023-01-31T04:43:20.354Z,85.80
2023-01-31T04:44:17.065Z,85.62
2023-01-31T04:45:13.754Z,84.80
2023-01-31T04:46:10.351Z,85.42
2023-01-31T04:47:06.997Z,86.04
2023-01-31T04:48:04.162Z,85.67
2023-01-31T04:49:00.839Z,86.46
2023-01-31T04:49:57.533Z,85.53
2023-01-31T04:50:54.173Z,85.00
2023-01-31T04:51:50.737Z,84.88
2023-01-31T04:52:51.573Z,83.54
2023-01-31T04:53:48.276Z,83.73
2023-01-31T04:54:44.898Z,83.73
2023-01-31T04:55:41.482Z,83.30
2023-01-31T04:56:38.081Z,84.24
2023-01-31T04:57:34.723Z,84.32
2023-01-31T04:58:31.716Z,84.73
2023-01-31T04:59:28.559Z,84.15
2023-01-31T05:00:25.299Z,83.82
2023-01-31T05:01:22.085Z,84.29
2023-01-31T05:02:18.937Z,84.62
2023-01-31T05:03:15.910Z,84.75
2023-01-31T05:04:12.777Z,84.86
2023-01-31T05:05:09.724Z,85.08
2023-01-31T05:06:07.039Z,85.26
2023-01-31T05:07:03.701Z,85.07
2023-01-31T05:08:00.287Z,85.57
2023-01-31T05:09:01.596Z,86.26
2023-01-31T05:09:58.256Z,86.77
2023-01-31T05:11:08.787Z,86.76
2023-01-31T05:12:07.354Z,86.91
2023-01-31T05:13:04.104Z,86.42
2023-01-31T05:14:00.752Z,85.88
2023-01-31T05:14:57.971Z,86.12
2023-01-31T05:15:54.653Z,86.19
2023-01-31T05:16:51.351Z,87.54
2023-01-31T05:18:03.010Z,87.50
2023-01-31T05:18:59.657Z,87.56
2023-01-31T05:19:57.185Z,87.75
2023-01-31T05:20:53.871Z,87.49
2023-01-31T05:21:59.012Z,86.74
2023-01-31T05:22:55.651Z,86.75
2023-01-31T05:23:52.203Z,86.44
2023-01-31T05:24:50.286Z,86.60
2023-01-31T05:25:49.821Z,86.70
2023-01-31T05:26:47.763Z,86.80
2023-01-31T05:27:44.984Z,86.74
2023-01-31T05:28:42.849Z,86.12
2023-01-31T05:29:39.597Z,85.94
2023-01-31T05:30:36.430Z,86.90
2023-01-31T05:31:33.311Z,86.86
2023-01-31T05:32:29.993Z,86.73
2023-01-31T05:33:29.286Z,86.59
2023-01-31T05:34:28.731Z,86.08
2023-01-31T05:35:25.466Z,86.85
2023-01-31T05:36:22.044Z,86.37
2023-01-31T05:37:19.406Z,86.12
2023-01-31T05:38:16.122Z,85.92
2023-01-31T05:39:12.759Z,86.62
2023-01-31T05:40:11.405Z,86.46
2023-01-31T05:41:08.053Z,85.78
2023-01-31T05:42:04.739Z,86.41
2023-01-31T05:43:02.008Z,86.76
2023-01-31T05:43:58.819Z,86.64
2023-01-31T05:44:55.495Z,86.30
2023-01-31T05:45:52.251Z,87.30
2023-01-31T05:46:48.996Z,86.81
2023-01-31T05:47:47.795Z,87.52
2023-01-31T05:48:46.702Z,87.26
2023-01-31T05:49:43.378Z,87.49
2023-01-31T05:50:39.986Z,87.82
2023-01-31T05:51:36.712Z,87.29
2023-01-31T05:52:33.430Z,87.42
2023-01-31T05:53:30.133Z,87.43
2023-01-31T05:54:26.747Z,87.34
2023-01-31T05:55:23.448Z,87.23
2023-01-31T05:56:20.041Z,86.70
2023-01-31T05:57:16.670Z,86.26
2023-01-31T05:58:13.313Z,86.17
2023-01-31T05:59:10.099Z,86.59
2023-01-31T06:00:08.662Z,87.15
2023-01-31T06:01:05.391Z,86.83
2023-01-31T06:02:02.413Z,87.41
2023-01-31T06:03:00.180Z,87.67
2023-01-31T06:03:56.831Z,87.35
2023-01-31T06:04:53.397Z,87.26
2023-01-31T06:05:50.195Z,87.13
2023-01-31T06:06:46.804Z,88.07
2023-01-31T06:07:43.467Z,88.52
2023-01-31T06:08:41.977Z,87.87
2023-01-31T06:09:40.558Z,88.16
2023-01-31T06:10:37.128Z,88.20
2023-01-31T06:11:33.795Z,88.04
2023-01-31T06:12:31.915Z,87.23
2023-01-31T06:13:28.651Z,87.25
2023-01-31T06:14:25.413Z,86.74
2023-01-31T06:15:22.390Z,86.93
2023-01-31T06:16:19.277Z,87.37
2023-01-31T06:17:16.058Z,87.33
2023-01-31T06:18:13.324Z,87.28
2023-01-31T06:19:09.920Z,87.03
2023-01-31T06:20:06.895Z,87.18
2023-01-31T06:21:03.856Z,87.39
2023-01-31T06:22:00.471Z,87.54
2023-01-31T06:22:57.371Z,87.58
2023-01-31T06:23:53.945Z,88.34
2023-01-31T06:24:50.791Z,87.55
2023-01-31T06:25:51.573Z,87.35
2023-01-31T06:26:48.171Z,87.11
2023-01-31T06:27:45.196Z,87.61
2023-01-31T06:28:41.875Z,87.60
2023-01-31T06:29:38.496Z,88.25
2023-01-31T06:30:36.884Z,88.14
2023-01-31T06:31:33.585Z,88.06
2023-01-31T06:32:30.592Z,87.63
2023-01-31T06:33:42.354Z,87.22
2023-01-31T06:34:42.287Z,86.46
2023-01-31T06:35:39.550Z,87.00
2023-01-31T06:36:36.153Z,86.34
2023-01-31T06:37:32.959Z,86.54
2023-01-31T06:38:30.130Z,86.97
2023-01-31T06:39:27.126Z,86.91
2023-01-31T06:40:23.835Z,86.28
2023-01-31T06:41:20.886Z,87.05
2023-01-31T06:42:17.572Z,87.00
2023-01-31T06:43:14.196Z,87.69
2023-01-31T06:44:10.821Z,87.61
2023-01-31T06:45:08.121Z,87.54
2023-01-31T06:46:05.002Z,87.26
2023-01-31T06:47:01.890Z,87.29
2023-01-31T06:47:58.497Z,86.79
2023-01-31T06:48:55.082Z,86.11
2023-01-31T06:49:51.714Z,85.73
2023-01-31T06:50:48.394Z,86.10
2023-01-31T06:51:45.330Z,85.64
2023-01-31T06:52:42.406Z,85.87
2023-01-31T06:53:38.979Z,85.76
2023-01-31T06:54:35.605Z,86.12
2023-01-31T06:55:32.640Z,86.26
2023-01-31T06:56:29.312Z,86.68
2023-01-31T06:57:26.016Z,87.14
2023-01-31T06:58:22.642Z,86.82
2023-01-31T06:59:19.243Z,86.90
2023-01-31T07:00:18.649Z,86.50
2023-01-31T07:01:15.971Z,86.61
2023-01-31T07:02:12.724Z,86.86
2023-01-31T07:03:09.333Z,87.03
2023-01-31T07:04:05.930Z,86.31
2023-01-31T07:05:02.752Z,85.49
2023-01-31T07:05:59.568Z,86.33
2023-01-31T07:06:57.511Z,86.92
2023-01-31T07:07:54.111Z,86.43
2023-01-31T07:08:51.010Z,85.49
2023-01-31T07:09:47.577Z,86.07
2023-01-31T07:10:44.156Z,86.18
2023-01-31T07:11:40.799Z,86.27
2023-01-31T07:12:37.694Z,86.86
2023-01-31T07:13:34.404Z,87.17
2023-01-31T07:14:31.457Z,86.25
2023-01-31T07:15:28.154Z,85.62
2023-01-31T07:16:25.650Z,85.45
2023-01-31T07:17:22.508Z,85.73
2023-01-31T07:18:19.156Z,86.00
2023-01-31T07:19:15.834Z,85.99
2023-01-31T07:20:12.959Z,86.54
2023-01-31T07:21:10.853Z,86.80
2023-01-31T07:22:07.410Z,86.80
2023-01-31T07:23:03.965Z,86.81
2023-01-31T07:24:00.619Z,86.86
2023-01-31T07:24:57.267Z,87.61
2023-01-31T07:25:53.824Z,86.98
2023-01-31T07:26:53.119Z,86.99
2023-01-31T07:27:49.809Z,86.75
2023-01-31T07:28:46.373Z,86.75
2023-01-31T07:29:46.247Z,86.36
2023-01-31T07:30:43.988Z,86.20
2023-01-31T07:31:40.743Z,85.90
2023-01-31T07:32:37.484Z,85.68
2023-01-31T07:33:34.513Z,85.54
2023-01-31T07:34:31.284Z,84.60
2023-01-31T07:35:28.718Z,84.20
2023-01-31T07:36:26.756Z,84.49
2023-01-31T07:37:23.363Z,84.27
2023-01-31T07:38:19.927Z,84.47
2023-01-31T07:39:16.589Z,83.66
2023-01-31T07:40:15.260Z,84.05
2023-01-31T07:41:11.935Z,84.41
2023-01-31T07:42:08.495Z,84.27
2023-01-31T07:43:05.139Z,83.53
2023-01-31T07:44:01.821Z,83.47
2023-01-31T07:44:59.827Z,83.36
2023-01-31T07:45:59.429Z,83.17
2023-01-31T07:46:56.562Z,83.25
2023-01-31T07:47:53.391Z,83.65
2023-01-31T07:48:49.954Z,82.46
2023-01-31T07:49:46.571Z,82.10
2023-01-31T07:50:43.209Z,82.29
2023-01-31T07:51:40.035Z,82.27
2023-01-31T07:52:36.724Z,82.23
2023-01-31T07:53:36.652Z,82.53
2023-01-31T07:54:33.420Z,83.03
2023-01-31T07:55:30.159Z,82.23
2023-01-31T07:56:27.466Z,81.39
2023-01-31T07:57:24.462Z,81.05
2023-01-31T07:58:21.079Z,79.88
2023-01-31T07:59:17.791Z,80.59
2023-01-31T08:00:33.404Z,79.62
2023-01-31T08:01:50.739Z,80.47
2023-01-31T08:03:06.135Z,80.03
2023-01-31T08:04:19.524Z,78.53
2023-01-31T08:05:17.602Z,78.43
2023-01-31T08:06:15.142Z,77.84
2023-01-31T08:07:12.864Z,76.94
2023-01-31T08:08:12.395Z,77.79
2023-01-31T08:09:09.404Z,77.37
2023-01-31T08:10:06.418Z,77.08
2023-01-31T08:11:05.161Z,77.12
2023-01-31T08:12:01.928Z,78.89
2023-01-31T08:12:58.495Z,78.31
2023-01-31T08:13:55.243Z,78.74
2023-01-31T08:14:51.806Z,78.08
2023-01-31T08:15:48.488Z,78.36
2023-01-31T08:16:45.428Z,79.38
2023-01-31T08:17:42.066Z,79.75
2023-01-31T08:18:39.312Z,79.69
2023-01-31T08:19:36.346Z,79.18
2023-01-31T08:20:33.309Z,79.51
2023-01-31T08:21:30.401Z,80.29
2023-01-31T08:22:27.091Z,79.90
2023-01-31T08:23:24.399Z,79.65
2023-01-31T08:24:21.031Z,80.19
2023-01-31T08:25:19.623Z,80.29
2023-01-31T08:26:20.231Z,80.96
2023-01-31T08:27:16.851Z,80.63
2023-01-31T08:28:13.540Z,80.36
2023-01-31T08:29:10.123Z,80.33
2023-01-31T08:30:07.600Z,81.13
2023-01-31T08:31:09.529Z,82.11
2023-01-31T08:32:06.527Z,81.64
2023-01-31T08:33:03.535Z,81.22
2023-01-31T08:34:00.252Z,80.34
2023-01-31T08:34:57.203Z,80.75
2023-01-31T08:35:53.801Z,80.48
2023-01-31T08:36:50.424Z,78.94
2023-01-31T08:37:47.103Z,78.83
2023-01-31T08:38:47.135Z,79.78
2023-01-31T08:39:44.657Z,78.55
2023-01-31T08:40:41.287Z,79.09
2023-01-31T08:41:38.985Z,79.90
2023-01-31T08:42:35.555Z,79.75
2023-01-31T08:43:39.337Z,79.77
2023-01-31T08:44:43.842Z,79.39
2023-01-31T08:45:40.529Z,78.56
2023-01-31T08:46:37.851Z,77.98
2023-01-31T08:47:34.559Z,78.00
2023-01-31T08:48:35.304Z,77.58
2023-01-31T08:49:33.778Z,77.15
2023-01-31T08:50:32.760Z,76.53
2023-01-31T08:51:30.342Z,76.49
2023-01-31T08:52:27.007Z,75.82
2023-01-31T08:53:23.635Z,74.85
2023-01-31T08:54:20.318Z,73.27
2023-01-31T08:55:16.959Z,72.00
2023-01-31T08:56:14.597Z,72.19
2023-01-31T08:57:11.393Z,72.79
2023-01-31T08:58:08.213Z,71.89
2023-01-31T08:59:04.884Z,72.79
2023-01-31T09:00:01.492Z,70.67
2023-01-31T09:01:02.863Z,70.33
2023-01-31T09:01:59.526Z,71.30
2023-01-31T09:02:58.918Z,71.96
2023-01-31T09:03:57.396Z,72.14
2023-01-31T09:04:54.065Z,73.08
2023-01-31T09:05:50.677Z,72.91
2023-01-31T09:06:47.353Z,72.74
2023-01-31T09:07:43.939Z,72.25
2023-01-31T09:08:40.594Z,72.14
2023-01-31T09:09:37.195Z,71.85
2023-01-31T09:10:33.821Z,71.38
2023-01-31T09:11:30.856Z,70.83
2023-01-31T09:12:27.681Z,71.11
2023-01-31T09:13:24.596Z,71.51
2023-01-31T09:14:21.264Z,71.66
2023-01-31T09:15:17.867Z,71.14
2023-01-31T09:16:15.331Z,72.13
2023-01-31T09:17:11.964Z,71.67
2023-01-31T09:18:08.635Z,72.11
2023-01-31T09:19:05.235Z,73.27
2023-01-31T09:20:06.662Z,72.39
2023-01-31T09:21:13.206Z,72.12
2023-01-31T09:22:09.760Z,72.13
2023-01-31T09:23:06.351Z,73.38
2023-01-31T09:24:03.849Z,74.57
2023-01-31T09:25:01.632Z,73.31
2023-01-31T09:25:58.416Z,73.05
2023-01-31T09:26:56.462Z,72.37
2023-01-31T09:27:53.885Z,72.17
2023-01-31T09:28:51.156Z,71.45
2023-01-31T09:29:47.872Z,70.56
2023-01-31T09:30:44.477Z,71.15
2023-01-31T09:31:41.204Z,72.03
2023-01-31T09:32:38.783Z,72.76
2023-01-31T09:33:36.070Z,72.96
2023-01-31T09:34:33.350Z,73.12
2023-01-31T09:35:32.062Z,71.75
2023-01-31T09:36:29.027Z,70.88
2023-01-31T09:37:25.762Z,72.28
2023-01-31T09:38:23.415Z,72.85
2023-01-31T09:39:20.006Z,73.34
2023-01-31T09:40:26.532Z,73.07
2023-01-31T09:41:41.944Z,71.39
2023-01-31T09:42:44.238Z,73.66
2023-01-31T09:43:46.020Z,72.54
2023-01-31T09:44:46.167Z,71.84
2023-01-31T09:45:46.136Z,70.10
2023-01-31T09:46:54.641Z,69.43
2023-01-31T09:47:54.328Z,69.96
2023-01-31T09:48:54.622Z,68.29
2023-01-31T09:49:55.078Z,67.75
2023-01-31T09:50:56.956Z,68.91
2023-01-31T09:51:58.571Z,68.45
2023-01-31T09:52:55.336Z,65.84
2023-01-31T09:53:53.495Z,66.86
2023-01-31T09:54:50.196Z,66.03
2023-01-31T09:56:09.889Z,64.78
2023-01-31T09:57:12.463Z,65.65
2023-01-31T09:58:34.283Z,65.31
2023-01-31T09:59:55.808Z,65.19
2023-01-31T10:01:02.572Z,67.01
2023-01-31T10:02:04.281Z,66.08
2023-01-31T10:03:39.116Z,65.06
2023-01-31T10:05:03.852Z,64.23
2023-01-31T10:06:03.323Z,63.36
2023-01-31T10:07:00.151Z,63.91
2023-01-31T10:08:08.724Z,63.29
2023-01-31T10:09:14.703Z,63.41
2023-01-31T10:10:34.112Z,62.15
2023-01-31T10:11:55.117Z,62.31
2023-01-31T10:12:57.994Z,63.57
2023-01-31T10:14:01.436Z,63.34
2023-01-31T10:15:13.560Z,63.14
2023-01-31T10:16:52.049Z,62.83
2023-01-31T10:18:16.199Z,64.08
2023-01-31T10:19:19.864Z,63.63
2023-01-31T10:20:32.792Z,63.96
2023-01-31T10:21:38.614Z,63.52
2023-01-31T10:22:47.082Z,64.05
2023-01-31T10:24:24.047Z,64.08
2023-01-31T10:25:28.123Z,63.89
2023-01-31T10:26:30.650Z,63.40
2023-01-31T10:27:48.885Z,63.32
2023-01-31T10:28:55.192Z,62.89
2023-01-31T10:29:55.429Z,63.93
2023-01-31T10:30:59.805Z,63.20
2023-01-31T10:32:00.735Z,61.92
2023-01-31T10:33:03.848Z,62.82
2023-01-31T10:34:17.156Z,63.68
2023-01-31T10:35:21.572Z,62.84
2023-01-31T10:36:36.739Z,64.30
2023-01-31T10:37:44.433Z,65.16
2023-01-31T10:38:56.987Z,64.20
2023-01-31T10:39:59.046Z,65.63
2023-01-31T10:41:30.099Z,66.74
2023-01-31T10:42:36.347Z,66.54
2023-01-31T10:43:47.356Z,65.19
2023-01-31T10:44:53.186Z,66.81
2023-01-31T10:45:49.824Z,66.60
2023-01-31T10:46:47.925Z,67.56
2023-01-31T10:48:01.134Z,68.00
2023-01-31T10:48:58.085Z,68.86
2023-01-31T10:49:54.793Z,68.34
2023-01-31T10:51:24.426Z,68.58
2023-01-31T10:52:32.983Z,67.34
2023-01-31T10:54:06.133Z,67.23
2023-01-31T10:55:47.321Z,69.42
2023-01-31T10:56:47.751Z,68.38
2023-01-31T10:57:44.767Z,68.08
2023-01-31T10:58:41.649Z,67.11
2023-01-31T10:59:42.975Z,69.43
2023-01-31T11:00:39.648Z,69.11
2023-01-31T11:01:36.519Z,68.67
2023-01-31T11:02:33.372Z,68.79
2023-01-31T11:03:30.142Z,69.03
2023-01-31T11:04:37.412Z,69.17
2023-01-31T11:05:42.490Z,69.50
2023-01-31T11:06:39.146Z,69.75
2023-01-31T11:07:35.953Z,70.28
2023-01-31T11:09:11.945Z,71.64
2023-01-31T11:10:27.554Z,71.63
2023-01-31T11:11:26.167Z,71.38
2023-01-31T11:12:41.030Z,72.35
2023-01-31T11:13:38.365Z,71.08
2023-01-31T11:14:36.749Z,71.78
2023-01-31T11:15:39.521Z,72.46
2023-01-31T11:16:40.764Z,71.92
2023-01-31T11:17:39.351Z,71.88
2023-01-31T11:18:46.444Z,72.30
2023-01-31T11:19:46.100Z,72.61
2023-01-31T11:20:47.656Z,73.30
2023-01-31T11:21:50.572Z,73.54
2023-01-31T11:22:47.211Z,73.53
2023-01-31T11:24:05.351Z,74.09
2023-01-31T11:25:06.986Z,73.10
2023-01-31T11:26:04.525Z,73.19
2023-01-31T11:27:07.466Z,73.35
2023-01-31T11:28:17.245Z,73.80
2023-01-31T11:29:25.734Z,73.38
2023-01-31T11:30:31.769Z,73.53
2023-01-31T11:31:34.880Z,74.28
2023-01-31T11:32:35.643Z,73.61
2023-01-31T11:33:44.251Z,73.80
2023-01-31T11:34:55.909Z,74.52
2023-01-31T11:35:52.832Z,74.79
2023-01-31T11:36:49.682Z,75.29
2023-01-31T11:37:54.135Z,75.59
2023-01-31T11:38:51.363Z,75.72
2023-01-31T11:39:56.473Z,75.67
2023-01-31T11:40:53.026Z,75.69
2023-01-31T11:41:49.668Z,75.54
2023-01-31T11:43:00.817Z,75.88
2023-01-31T11:44:12.303Z,76.17
2023-01-31T11:45:30.801Z,76.06
2023-01-31T11:46:27.472Z,75.88
2023-01-31T11:47:42.409Z,76.84
2023-01-31T11:48:42.280Z,77.27
2023-01-31T11:49:42.774Z,77.10
2023-01-31T11:50:43.197Z,78.85
2023-01-31T11:51:40.858Z,78.36
2023-01-31T11:52:37.465Z,77.79
2023-01-31T11:53:43.184Z,77.27
2023-01-31T11:54:46.600Z,77.68
2023-01-31T11:55:44.759Z,77.00
2023-01-31T11:56:41.804Z,76.60
2023-01-31T11:57:40.510Z,78.01
2023-01-31T11:58:40.710Z,78.52
2023-01-31T11:59:37.799Z,78.45
2023-01-31T12:00:34.575Z,78.83
2023-01-31T12:01:32.651Z,78.83
2023-01-31T12:02:41.668Z,78.72
2023-01-31T12:03:48.670Z,78.16
2023-01-31T12:04:52.553Z,77.23
2023-01-31T12:06:01.626Z,78.42
2023-01-31T12:07:22.367Z,79.76
2023-01-31T12:08:44.319Z,80.04
2023-01-31T12:09:44.148Z,79.71
2023-01-31T12:10:45.979Z,79.17
2023-01-31T12:11:52.328Z,78.57
2023-01-31T12:12:52.142Z,80.10
2023-01-31T12:13:54.105Z,80.40
2023-01-31T12:14:51.152Z,79.44
2023-01-31T12:15:58.963Z,81.01
2023-01-31T12:16:56.792Z,80.98
2023-01-31T12:17:54.305Z,80.84
2023-01-31T12:19:02.939Z,81.24
2023-01-31T12:19:59.541Z,81.65
2023-01-31T12:21:03.948Z,81.38
2023-01-31T12:22:13.947Z,81.41
2023-01-31T12:23:16.597Z,81.57
2023-01-31T12:24:44.065Z,82.62
2023-01-31T12:25:53.167Z,81.31
2023-01-31T12:26:56.938Z,81.09
2023-01-31T12:28:22.027Z,80.90
2023-01-31T12:29:49.681Z,81.02
2023-01-31T12:31:02.929Z,81.47
2023-01-31T12:32:02.659Z,81.41
2023-01-31T12:33:16.461Z,80.90
2023-01-31T12:34:59.540Z,81.92
2023-01-31T12:36:09.904Z,81.24
2023-01-31T12:37:12.323Z,82.60
2023-01-31T12:38:16.696Z,82.10
2023-01-31T12:39:22.458Z,81.81
2023-01-31T12:40:31.238Z,82.03
2023-01-31T12:41:30.582Z,81.54
2023-01-31T12:42:32.986Z,82.50
2023-01-31T12:43:29.555Z,82.07
2023-01-31T12:45:02.746Z,81.58
2023-01-31T12:46:15.079Z,81.86
2023-01-31T12:47:45.507Z,81.78
2023-01-31T12:48:50.047Z,82.49
2023-01-31T12:50:05.194Z,82.12
2023-01-31T12:51:37.770Z,81.48
2023-01-31T12:53:04.710Z,81.72
2023-01-31T12:54:43.120Z,81.43
2023-01-31T12:55:39.842Z,79.89
2023-01-31T12:56:52.076Z,80.03
2023-01-31T12:58:13.180Z,81.25
2023-01-31T12:59:24.946Z,81.89
2023-01-31T13:00:24.244Z,81.00
2023-01-31T13:02:08.093Z,79.91
2023-01-31T13:03:16.988Z,80.34
2023-01-31T13:04:52.393Z,80.48
2023-01-31T13:06:07.235Z,80.20
2023-01-31T13:07:10.589Z,79.39
2023-01-31T13:08:29.019Z,78.97
2023-01-31T13:09:33.039Z,78.67
2023-01-31T13:10:33.607Z,79.00
2023-01-31T13:11:45.483Z,79.09
2023-01-31T13:12:42.807Z,80.50
2023-01-31T13:13:49.221Z,80.63